Time;durP1;ratioP1;P1;durP2;ratioP2;P2;SDS_P1;SDS_P2;PMS_P1;PMS_P2;Temp;Humidity;BMP_temperature;BMP_pressure;BME280_temperature;BME280_humidity;BME280_pressure;Samples;Min_cycle;Max_cycle;Signal;HPM_P1;HPM_P2
2023/05/07 00:00:18;;;;;;;;;0.75;0.75;;;;;18.19;74.98;101071.34;4962179;28;45280;-67
2023/05/07 00:02:44;;;;;;;;;1.25;1.25;;;;;18.16;74.86;101079.66;4974945;28;45673;-67
2023/05/07 00:05:13;;;;;;;;;0.75;0.75;;;;;18.09;74.83;101065.66;4971529;28;45446;-67
2023/05/07 00:07:38;;;;;;;;;2.00;1.25;;;;;17.90;75.35;101037.97;4957432;28;45450;-67
2023/05/07 00:10:06;;;;;;;;;0.75;0.75;;;;;17.90;74.95;101044.22;4959582;28;45282;-68
2023/05/07 00:12:33;;;;;;;;;1.50;1.50;;;;;17.93;75.68;101040.50;5026418;28;45243;-67
2023/05/07 00:15:03;;;;;;;;;1.00;1.00;;;;;17.97;75.76;101055.53;4963705;28;45383;-67
2023/05/07 00:17:28;;;;;;;;;1.75;1.75;;;;;17.81;76.10;101042.06;5031123;27;47121;-67
2023/05/07 00:19:54;;;;;;;;;3.50;2.00;;;;;17.91;75.81;101051.38;4963043;28;45394;-67
2023/05/07 00:22:19;;;;;;;;;1.75;1.75;;;;;17.99;75.83;101063.56;4975809;28;45419;-68
2023/05/07 00:24:45;;;;;;;;;0.75;0.75;;;;;18.02;75.55;101077.75;4993329;27;45344;-67
2023/05/07 00:27:12;;;;;;;;;1.00;1.00;;;;;18.02;75.60;101082.28;4969336;28;45988;-67
2023/05/07 00:29:38;;;;;;;;;1.00;0.50;;;;;17.71;75.69;101036.31;4969812;28;46073;-67
2023/05/07 00:32:04;;;;;;;;;0.75;0.75;;;;;17.71;76.13;101044.41;4958089;28;45428;-67
2023/05/07 00:34:29;;;;;;;;;0.50;0.50;;;;;17.75;76.15;101055.91;4959229;28;45374;-67
2023/05/07 00:36:57;;;;;;;;;0.75;0.75;;;;;17.97;76.20;101085.25;4975044;28;47180;-68
2023/05/07 00:39:23;;;;;;;;;1.00;1.00;;;;;17.64;76.52;101034.94;4980611;28;45401;-68
2023/05/07 00:41:48;;;;;;;;;0.50;0.50;;;;;17.66;76.63;101041.09;4957995;28;45719;-68
2023/05/07 00:44:14;;;;;;;;;1.00;1.00;;;;;17.81;76.79;101065.47;4969969;28;45479;-68
2023/05/07 00:46:40;;;;;;;;;3.75;2.00;;;;;17.81;76.59;101063.66;4969420;28;45469;-67
2023/05/07 00:49:06;;;;;;;;;2.25;0.00;;;;;17.78;76.92;101075.47;4974861;28;45386;-67
2023/05/07 00:51:35;;;;;;;;;2.00;0.50;;;;;17.51;77.19;101031.19;4971583;28;45492;-67
2023/05/07 00:54:02;;;;;;;;;0.50;0.50;;;;;17.62;77.73;101047.63;4959944;28;45437;-67
2023/05/07 00:56:28;;;;;;;;;0.50;0.50;;;;;17.36;77.25;101014.03;4974933;28;47574;-67
2023/05/07 00:58:56;;;;;;;;;1.50;0.50;;;;;17.73;77.53;101072.19;4977119;28;45433;-67
2023/05/07 01:01:21;;;;;;;;;0.50;0.50;;;;;17.47;77.05;101027.75;4969767;28;45346;-67
2023/05/07 01:03:47;;;;;;;;;2.50;0.50;;;;;17.48;77.33;101024.13;4958688;28;45563;-67
2023/05/07 01:06:16;;;;;;;;;0.00;0.00;;;;;17.60;77.49;101046.84;4958713;28;46267;-67
2023/05/07 01:08:42;;;;;;;;;1.00;1.00;;;;;17.64;77.48;101047.53;4957402;28;45478;-68
2023/05/07 01:11:09;;;;;;;;;0.25;0.25;;;;;17.44;77.57;101002.78;4994906;28;45378;-67
2023/05/07 01:13:36;;;;;;;;;0.50;0.50;;;;;17.51;77.33;101021.25;4986120;27;45524;-67
2023/05/07 01:16:03;;;;;;;;;0.25;0.00;;;;;17.56;77.49;101035.34;4991932;27;47225;-67
2023/05/07 01:18:29;;;;;;;;;0.00;0.00;;;;;17.53;77.54;101023.88;4979586;28;45373;-67
2023/05/07 01:20:58;;;;;;;;;1.75;1.00;;;;;17.49;77.84;101009.69;4987544;28;45449;-67
2023/05/07 01:23:27;;;;;;;;;2.75;0.50;;;;;17.50;77.73;101010.53;4960968;28;45577;-67
2023/05/07 01:25:53;;;;;;;;;0.00;0.00;;;;;17.37;77.61;100989.66;4958143;28;46439;-67
2023/05/07 01:28:19;;;;;;;;;0.00;0.00;;;;;17.57;77.63;101015.50;4978149;28;45572;-67
2023/05/07 01:30:49;;;;;;;;;0.00;0.00;;;;;17.67;77.79;101029.31;4965198;28;45470;-67
2023/05/07 01:33:18;;;;;;;;;0.00;0.00;;;;;17.53;77.89;101013.94;4963410;28;45303;-68
2023/05/07 01:35:48;;;;;;;;;0.00;0.00;;;;;17.32;78.21;100990.88;4973841;28;47710;-67
2023/05/07 01:38:14;;;;;;;;;0.00;0.00;;;;;17.45;77.81;100994.59;4958414;28;45537;-67
2023/05/07 01:40:40;;;;;;;;;1.25;0.75;;;;;17.66;77.61;101027.59;4984511;28;45397;-67
2023/05/07 01:43:08;;;;;;;;;0.00;0.00;;;;;17.67;78.03;101028.47;4958744;28;45339;-67
2023/05/07 01:45:35;;;;;;;;;0.50;0.50;;;;;17.53;77.87;101013.06;4977673;28;45504;-67
2023/05/07 01:48:02;;;;;;;;;0.50;0.50;;;;;17.41;77.77;100999.31;4962722;28;45762;-67
2023/05/07 01:50:29;;;;;;;;;0.50;0.50;;;;;17.70;77.50;101034.56;4958704;28;45477;-68
2023/05/07 01:52:55;;;;;;;;;0.00;0.00;;;;;17.39;78.40;100985.03;4969936;28;45408;-67
2023/05/07 01:55:23;;;;;;;;;1.25;1.00;;;;;17.57;78.59;101017.31;4975089;28;45752;-68
2023/05/07 01:57:49;;;;;;;;;1.00;1.00;;;;;17.57;79.18;101025.41;4971011;28;45267;-67
2023/05/07 02:00:14;;;;;;;;;0.50;0.50;;;;;17.52;79.22;101014.88;4976420;28;45327;-67
2023/05/07 02:02:40;;;;;;;;;3.00;1.00;;;;;17.29;78.79;100994.63;4971491;28;45529;-68
2023/05/07 02:05:05;;;;;;;;;0.00;0.00;;;;;17.57;79.10;101033.50;4958206;28;45454;-67
2023/05/07 02:07:31;;;;;;;;;2.75;2.00;;;;;17.50;79.51;101026.75;4958142;28;45414;-68
2023/05/07 02:09:56;;;;;;;;;0.50;0.50;;;;;17.44;79.19;101016.28;4957584;28;45331;-67
2023/05/07 02:12:23;;;;;;;;;1.00;1.00;;;;;17.60;79.45;101041.44;4995322;28;45486;-68
2023/05/07 02:14:48;;;;;;;;;2.25;1.50;;;;;17.66;79.70;101048.31;4972923;28;46612;-67
2023/05/07 02:17:14;;;;;;;;;1.50;1.50;;;;;17.45;79.55;101013.50;4993837;27;45412;-67
2023/05/07 02:19:39;;;;;;;;;2.00;0.50;;;;;17.36;79.24;100987.91;4973202;28;45621;-68
2023/05/07 02:22:05;;;;;;;;;1.50;0.50;;;;;17.64;79.88;101055.63;4990190;28;45530;-67
2023/05/07 02:24:30;;;;;;;;;1.00;1.00;;;;;17.34;79.70;101002.44;4963177;28;48237;-67
2023/05/07 02:26:58;;;;;;;;;1.00;1.00;;;;;17.46;79.32;101022.44;4961220;28;45323;-68
2023/05/07 02:29:23;;;;;;;;;0.00;0.00;;;;;17.52;79.78;101036.47;4975758;28;45532;-67
2023/05/07 02:31:52;;;;;;;;;0.00;0.00;;;;;17.40;79.63;101020.97;4968871;28;45919;-68
2023/05/07 02:34:18;;;;;;;;;1.00;1.00;;;;;17.62;79.84;101055.72;4972798;28;47533;-67
2023/05/07 02:36:44;;;;;;;;;2.25;1.00;;;;;17.46;79.49;101025.16;4957830;28;45293;-68
2023/05/07 02:39:09;;;;;;;;;1.00;1.00;;;;;17.20;79.64;100990.59;4957920;28;45422;-67
2023/05/07 02:41:37;;;;;;;;;1.00;1.00;;;;;17.52;79.97;101044.56;4957925;28;45605;-68
2023/05/07 02:44:02;;;;;;;;;0.25;0.25;;;;;17.34;79.83;101015.94;4967626;28;45857;-67
2023/05/07 02:46:28;;;;;;;;;0.00;0.00;;;;;17.37;79.97;101024.75;4969009;28;45388;-68
2023/05/07 02:48:53;;;;;;;;;0.25;0.00;;;;;17.36;79.86;101014.03;4972667;28;45414;-67
2023/05/07 02:51:21;;;;;;;;;1.25;0.00;;;;;17.32;80.11;101020.53;4970553;28;45377;-67
2023/05/07 02:53:48;;;;;;;;;0.75;0.75;;;;;17.32;80.00;101024.09;4972452;28;47770;-67
2023/05/07 02:56:14;;;;;;;;;0.00;0.00;;;;;17.16;79.88;101007.06;4956449;28;45502;-68
2023/05/07 02:58:41;;;;;;;;;1.00;0.00;;;;;17.50;79.31;101061.81;4975548;28;45603;-67
2023/05/07 03:01:07;;;;;;;;;1.00;1.00;;;;;17.40;79.65;101038.03;4974534;28;45386;-67
2023/05/07 03:03:33;;;;;;;;;1.00;1.00;;;;;17.33;79.37;101025.84;4962380;28;48074;-68
2023/05/07 03:05:58;;;;;;;;;0.00;0.00;;;;;17.33;79.95;101025.00;4962796;28;45407;-68
2023/05/07 03:08:24;;;;;;;;;2.00;1.00;;;;;17.21;80.33;100999.59;4981819;28;45551;-68
2023/05/07 03:10:52;;;;;;;;;1.00;1.00;;;;;17.48;80.50;101042.16;4977571;28;45490;-67
2023/05/07 03:13:17;;;;;;;;;1.00;1.00;;;;;17.32;80.38;101021.41;4995665;27;48369;-68
2023/05/07 03:15:42;;;;;;;;;1.00;1.00;;;;;17.55;80.61;101054.34;4981701;28;45812;-68
2023/05/07 03:18:08;;;;;;;;;1.00;1.00;;;;;17.47;80.25;101032.31;4976053;28;45367;-68
2023/05/07 03:20:33;;;;;;;;;0.25;0.25;;;;;17.27;80.25;100999.22;4957618;28;45545;-68
2023/05/07 03:22:59;;;;;;;;;1.00;1.00;;;;;17.20;80.23;100990.59;4957003;28;45380;-68
2023/05/07 03:25:24;;;;;;;;;1.00;1.00;;;;;17.52;80.43;101041.00;4957446;28;45378;-68
2023/05/07 03:27:50;;;;;;;;;1.00;1.00;;;;;17.55;80.25;101054.34;4968591;28;45657;-68
2023/05/07 03:30:15;;;;;;;;;0.50;0.50;;;;;17.44;80.50;101038.75;4969024;28;45322;-68
2023/05/07 03:32:41;;;;;;;;;0.25;0.25;;;;;17.33;80.82;101025.84;4956750;28;45532;-68
2023/05/07 03:35:07;;;;;;;;;1.00;1.00;;;;;17.53;80.92;101048.16;4957240;28;45344;-68
2023/05/07 03:37:33;;;;;;;;;1.00;1.00;;;;;17.31;80.61;101022.38;4957107;28;45280;-68
2023/05/07 03:39:58;;;;;;;;;0.00;0.00;;;;;17.49;80.66;101046.56;4957370;28;45304;-68
2023/05/07 03:42:24;;;;;;;;;0.50;0.00;;;;;17.22;80.98;101006.69;4960168;28;46050;-68
2023/05/07 03:44:50;;;;;;;;;2.00;1.00;;;;;17.20;80.95;101006.78;4970425;28;45444;-68
2023/05/07 03:47:15;;;;;;;;;0.00;0.00;;;;;17.31;80.52;101038.56;4961437;28;45638;-68
2023/05/07 03:49:40;;;;;;;;;0.50;0.50;;;;;17.16;80.90;101007.06;4960647;28;45411;-67
2023/05/07 03:52:06;;;;;;;;;1.25;1.25;;;;;17.47;81.37;101070.09;4959595;28;45500;-68
2023/05/07 03:54:32;;;;;;;;;1.00;1.00;;;;;17.16;81.21;101010.63;4959727;28;45449;-68
2023/05/07 03:56:57;;;;;;;;;2.00;1.00;;;;;17.46;80.96;101068.34;4966396;28;45343;-68
2023/05/07 03:59:22;;;;;;;;;2.25;1.50;;;;;17.46;80.90;101057.53;4973076;28;45536;-68
2023/05/07 04:01:51;;;;;;;;;2.75;1.50;;;;;17.33;81.41;101033.94;4959246;28;46191;-68
2023/05/07 04:04:20;;;;;;;;;1.50;1.50;;;;;17.30;81.55;101042.22;4959593;28;45598;-68
2023/05/07 04:06:47;;;;;;;;;1.00;1.00;;;;;17.21;81.69;101027.41;4959729;28;45667;-67
2023/05/07 04:09:13;;;;;;;;;1.00;1.00;;;;;17.25;81.66;101038.91;4959859;28;45372;-68
2023/05/07 04:11:40;;;;;;;;;1.25;0.25;;;;;17.32;81.44;101058.31;5024090;28;48093;-68
2023/05/07 04:14:05;;;;;;;;;0.25;0.25;;;;;17.34;81.23;101059.09;4973821;28;45665;-68
2023/05/07 04:16:31;;;;;;;;;0.00;0.00;;;;;17.19;81.42;101042.81;5020148;28;45399;-68
2023/05/07 04:18:56;;;;;;;;;0.00;0.00;;;;;17.19;81.29;101039.22;4971519;28;45464;-68
2023/05/07 04:21:22;;;;;;;;;0.00;0.00;;;;;17.24;81.54;101061.47;4958228;28;46719;-68
2023/05/07 04:23:48;;;;;;;;;0.75;0.75;;;;;17.36;81.81;101068.00;4959499;28;45375;-68
2023/05/07 04:26:17;;;;;;;;;1.50;1.00;;;;;17.36;81.57;101065.31;4974927;28;45598;-68
2023/05/07 04:28:43;;;;;;;;;0.00;0.00;;;;;17.16;81.52;101037.59;4963747;28;46322;-68
2023/05/07 04:31:08;;;;;;;;;1.00;1.00;;;;;17.39;81.64;101070.50;4975813;28;45490;-68
2023/05/07 04:33:36;;;;;;;;;1.75;0.50;;;;;17.29;81.57;101055.78;4958717;27;45299;-68
2023/05/07 04:36:02;;;;;;;;;0.00;0.00;;;;;17.30;81.88;101057.53;4959400;28;45581;-68
2023/05/07 04:38:31;;;;;;;;;2.25;1.25;;;;;17.29;81.35;101055.78;4959415;28;45273;-68
2023/05/07 04:40:58;;;;;;;;;1.25;0.75;;;;;17.49;81.41;101085.25;4974119;28;48071;-68
2023/05/07 04:43:23;;;;;;;;;0.00;0.00;;;;;17.31;81.66;101067.38;4961160;28;45398;-68
2023/05/07 04:45:52;;;;;;;;;0.50;0.50;;;;;17.39;81.47;101086.69;4975625;28;45425;-68
2023/05/07 04:48:20;;;;;;;;;1.50;0.75;;;;;17.19;81.24;101060.81;4976562;28;45245;-68
2023/05/07 04:50:49;;;;;;;;;0.00;0.00;;;;;17.39;81.27;101092.09;4982304;28;45568;-68
2023/05/07 04:53:15;;;;;;;;;1.00;1.00;;;;;17.33;81.40;101087.91;4957857;28;45493;-68
2023/05/07 04:55:40;;;;;;;;;2.00;0.50;;;;;17.41;81.38;101101.00;4959249;28;45272;-68
2023/05/07 04:58:06;;;;;;;;;1.00;1.00;;;;;17.26;81.34;101074.84;4959981;28;45433;-68
2023/05/07 05:00:31;;;;;;;;;1.75;0.75;;;;;17.28;81.87;101084.59;4958615;28;46271;-68
2023/05/07 05:02:56;;;;;;;;;1.00;1.00;;;;;17.31;81.38;101086.28;4977026;28;45422;-68
2023/05/07 05:05:25;;;;;;;;;1.00;1.00;;;;;17.27;81.63;101088.25;4975946;28;45271;-68
2023/05/07 05:07:51;;;;;;;;;1.00;1.00;;;;;17.46;81.49;101116.91;4987395;28;45585;-68
2023/05/07 05:10:17;;;;;;;;;2.75;0.00;;;;;17.35;81.51;101107.59;4994375;28;47078;-68
2023/05/07 05:12:42;;;;;;;;;2.00;1.00;;;;;17.26;81.72;101089.22;5015634;28;45531;-68
2023/05/07 05:15:10;;;;;;;;;0.00;0.00;;;;;17.02;81.71;101045.56;4967889;28;45335;-68
2023/05/07 05:17:36;;;;;;;;;0.25;0.25;;;;;17.30;81.24;101106.97;4983658;27;45423;-68
2023/05/07 05:20:02;;;;;;;;;2.25;0.75;;;;;17.31;81.63;101099.75;4961832;28;46147;-68
2023/05/07 05:22:29;;;;;;;;;1.00;1.00;;;;;17.20;81.68;101081.44;4958747;28;45360;-68
2023/05/07 05:24:57;;;;;;;;;1.00;1.00;;;;;17.11;81.78;101087.38;4957416;28;45419;-68
2023/05/07 05:27:22;;;;;;;;;2.00;0.75;;;;;17.23;81.74;101102.88;4976218;28;45563;-68
2023/05/07 05:29:50;;;;;;;;;1.00;1.00;;;;;17.43;81.71;101128.75;4960963;28;46080;-68
2023/05/07 05:32:16;;;;;;;;;0.00;0.00;;;;;17.17;81.80;101095.09;4968054;28;45254;-68
2023/05/07 05:34:41;;;;;;;;;1.50;0.75;;;;;17.38;81.78;101130.84;4965536;28;45616;-68
2023/05/07 05:37:07;;;;;;;;;1.00;1.00;;;;;17.07;81.84;101077.69;4958635;28;45299;-68
2023/05/07 05:39:32;;;;;;;;;1.75;1.00;;;;;17.13;81.94;101090.84;4974392;28;47024;-68
2023/05/07 05:41:58;;;;;;;;;1.00;1.00;;;;;17.33;82.08;101136.47;4965092;28;45525;-68
2023/05/07 05:44:23;;;;;;;;;1.25;1.25;;;;;17.16;82.06;101107.72;4972940;28;45619;-68
2023/05/07 05:46:49;;;;;;;;;1.00;1.00;;;;;17.14;82.00;101106.06;4977258;28;45339;-68
2023/05/07 05:49:17;;;;;;;;;1.75;0.50;;;;;17.22;82.30;101117.31;4958203;28;45522;-68
2023/05/07 05:51:43;;;;;;;;;4.25;0.00;;;;;17.31;82.35;101138.41;4958482;28;45365;-68
2023/05/07 05:54:08;;;;;;;;;1.00;1.00;;;;;17.30;82.21;101133.94;4958459;28;45506;-68
2023/05/07 05:56:34;;;;;;;;;1.00;1.00;;;;;17.28;82.16;101140.41;4970956;28;45838;-68
2023/05/07 05:59:02;;;;;;;;;1.25;1.00;;;;;17.27;82.48;101135.94;4957956;28;46099;-68
2023/05/07 06:01:27;;;;;;;;;2.25;2.25;;;;;17.07;82.63;101105.50;4958080;28;45422;-68
2023/05/07 06:03:53;;;;;;;;;1.25;1.00;;;;;16.91;82.82;101089.31;4958332;28;45320;-68
2023/05/07 06:06:18;;;;;;;;;1.00;1.00;;;;;17.04;82.45;101109.25;4956217;28;45511;-68
2023/05/07 06:08:44;;;;;;;;;1.00;1.00;;;;;17.13;82.65;101134.00;4960304;28;45605;-68
2023/05/07 06:11:09;;;;;;;;;0.50;0.25;;;;;17.03;82.86;101112.91;5004010;28;45502;-68
2023/05/07 06:13:35;;;;;;;;;2.00;1.00;;;;;17.02;82.63;101121.06;4980448;27;45469;-67
2023/05/07 06:16:24;;;;;;;;;2.00;2.00;;;;;17.19;83.10;101157.94;4973691;28;45781;-67
2023/05/07 06:18:57;;;;;;;;;1.00;1.00;;;;;17.17;83.21;101155.34;4962404;28;45689;-66
2023/05/07 06:21:32;;;;;;;;;;;;;;;;;;;;;
2023/05/07 06:24:00;;;;;;;;;1.00;1.00;;;;;17.12;83.46;101148.44;4964568;28;68587;-66
2023/05/07 06:26:43;;;;;;;;;1.50;1.00;;;;;16.85;83.37;101109.34;4962888;28;45454;-66
2023/05/07 06:29:11;;;;;;;;;2.00;1.00;;;;;17.01;83.64;101138.22;4963268;28;46158;-66
2023/05/07 06:31:44;;;;;;;;;1.25;1.00;;;;;17.17;83.83;101159.84;4956250;28;45513;-66
2023/05/07 06:34:20;;;;;;;;;;;;;;;;;;;;;
2023/05/07 06:36:58;;;;;;;;;;;;;;;;;;;;;
2023/05/07 06:39:36;;;;;;;;;;;;;;;;;;;;;
2023/05/07 06:42:41;;;;;;;;;1.00;1.00;;;;;16.98;83.80;101135.69;4972966;28;71309;-66
2023/05/07 06:45:14;;;;;;;;;1.00;1.00;;;;;17.18;83.88;101170.56;4985526;27;45453;-66
2023/05/07 06:47:40;;;;;;;;;1.00;1.00;;;;;16.93;84.21;101121.56;4962501;27;45560;-66
2023/05/07 06:50:09;;;;;;;;;1.00;1.00;;;;;16.98;83.99;101133.00;4968703;28;46261;-66
2023/05/07 06:52:45;;;;;;;;;;;;;;;;;;;;;
2023/05/07 06:55:40;;;;;;;;;;;;;;;;;;;;;
2023/05/07 06:58:09;;;;;;;;;0.50;0.50;;;;;16.86;83.62;101121.03;4964475;28;71904;-67
2023/05/07 07:01:01;;;;;;;;;;;;;;;;;;;;;
2023/05/07 07:03:29;;;;;;;;;0.00;0.00;;;;;16.97;84.00;101150.13;4956251;28;72700;-67
2023/05/07 07:06:20;;;;;;;;;0.50;0.50;;;;;16.82;83.57;101117.59;4970342;28;45433;-67
2023/05/07 07:08:55;;;;;;;;;1.00;1.00;;;;;17.08;84.25;101163.03;4970781;28;45781;-67
2023/05/07 07:36:24;;;;;;;;;;;;;;;;;;;;;
2023/05/07 07:39:17;;;;;;;;;1.00;1.00;;;;;16.82;84.96;101155.34;4972007;28;75310;-65
2023/05/07 07:42:02;;;;;;;;;;;;;;;;;;;;;
2023/05/07 07:44:58;;;;;;;;;;;;;;;;;;;;;
2023/05/07 07:54:52;;;;;;;;;;;;;;;;;;;;;
2023/05/07 08:56:45;;;;;;;;;;;;;;;;;;;;;
2023/05/07 09:09:52;;;;;;;;;;;;;;;;;;;;;
2023/05/07 09:16:42;;;;;;;;;;;;;;;;;;;;;
2023/05/07 09:22:47;;;;;;;;;2.00;2.00;;;;;17.49;85.15;101228.28;4951900;28;45605;-66
2023/05/07 09:25:23;;;;;;;;;1.00;1.00;;;;;17.56;85.05;101231.53;4939321;28;46726;-66
2023/05/07 09:28:00;;;;;;;;;2.50;2.00;;;;;17.58;85.29;101241.28;4955950;28;46599;-66
2023/05/07 09:30:44;;;;;;;;;;;;;;;;;;;;;
2023/05/07 09:36:31;;;;;;;;;;;;;;;;;;;;;
2023/05/07 09:42:26;;;;;;;;;4.00;2.00;;;;;17.63;84.90;101235.63;4974129;28;45492;-67
2023/05/07 09:44:52;;;;;;;;;2.50;2.50;;;;;17.67;85.24;101233.63;4964214;28;45754;-64
2023/05/07 09:47:19;;;;;;;;;1.00;1.00;;;;;17.72;84.72;101245.91;4970412;28;48242;-63
2023/05/07 09:49:47;;;;;;;;;2.00;2.00;;;;;17.72;85.14;101243.22;4971489;28;45727;-64
2023/05/07 09:52:13;;;;;;;;;2.50;2.50;;;;;17.74;85.36;101246.72;4962716;28;45765;-65
2023/05/07 09:54:42;;;;;;;;;1.50;1.50;;;;;17.69;85.42;101239.81;4966240;28;45592;-65
2023/05/07 09:57:10;;;;;;;;;1.75;1.75;;;;;17.89;85.32;101268.47;4955071;28;46105;-65
2023/05/07 09:59:38;;;;;;;;;1.50;1.50;;;;;17.69;84.66;101234.41;4952845;28;45396;-65
2023/05/07 10:02:04;;;;;;;;;1.75;1.75;;;;;17.65;85.13;101222.06;4960349;28;47062;-65
2023/05/07 10:04:30;;;;;;;;;1.25;1.00;;;;;17.82;84.88;101240.03;4963807;28;45805;-65
2023/05/07 10:06:57;;;;;;;;;1.25;1.25;;;;;17.91;84.79;101266.56;4958228;28;45483;-65
2023/05/07 10:09:23;;;;;;;;;1.25;1.25;;;;;17.72;84.61;101239.66;4963924;28;45547;-65
2023/05/07 10:11:49;;;;;;;;;2.25;2.25;;;;;17.96;84.78;101272.59;4964356;28;45528;-64
2023/05/07 10:14:15;;;;;;;;;1.00;1.00;;;;;17.84;84.79;101249.81;4954830;28;45798;-64
2023/05/07 10:16:41;;;;;;;;;3.25;2.00;;;;;17.90;85.11;101254.88;4978270;28;45440;-65
2023/05/07 10:19:09;;;;;;;;;2.00;2.00;;;;;18.01;84.32;101270.50;4966048;28;45488;-65
2023/05/07 10:21:37;;;;;;;;;1.50;1.50;;;;;18.06;84.68;101273.84;4968087;28;45676;-65
2023/05/07 10:24:14;;;;;;;;;2.75;2.75;;;;;18.05;84.84;101266.66;4958014;28;45453;-65
2023/05/07 10:26:45;;;;;;;;;3.25;3.25;;;;;18.11;85.45;101284.38;4956502;28;47529;-65
2023/05/07 10:29:33;;;;;;;;;3.50;3.25;;;;;18.12;85.22;101276.16;4983606;28;45535;-65
2023/05/07 10:32:19;;;;;;;;;3.75;2.50;;;;;18.00;84.61;101249.84;4957831;28;45417;-65
2023/05/07 10:34:48;;;;;;;;;1.50;1.50;;;;;17.99;84.00;101244.53;4971652;28;45504;-65
2023/05/07 10:37:15;;;;;;;;;2.75;2.75;;;;;17.95;83.59;101238.44;4956634;28;47771;-65
2023/05/07 10:39:41;;;;;;;;;1.25;1.25;;;;;18.19;84.06;101276.69;4958018;28;45606;-65
2023/05/07 10:42:11;;;;;;;;;1.75;1.75;;;;;18.07;83.58;101253.94;4957964;28;45546;-65
2023/05/07 10:44:37;;;;;;;;;4.00;2.00;;;;;18.05;83.55;101250.47;5000964;28;45347;-65
2023/05/07 10:47:08;;;;;;;;;3.00;2.50;;;;;18.24;83.44;101273.75;4993560;28;46487;-65
2023/05/07 10:49:55;;;;;;;;;3.00;3.00;;;;;18.01;83.73;101235.41;4970268;28;45637;-65
2023/05/07 10:52:23;;;;;;;;;2.25;2.25;;;;;18.15;83.19;101256.22;4971771;28;45526;-65
2023/05/07 10:55:14;;;;;;;;;1.75;1.75;;;;;18.31;82.84;101273.31;4957883;28;45425;-65
2023/05/07 10:57:39;;;;;;;;;1.75;1.75;;;;;18.11;82.63;101236.63;4966785;28;45333;-65
2023/05/07 11:00:23;;;;;;;;;2.50;2.50;;;;;18.39;82.84;101280.13;4980256;28;45372;-65
2023/05/07 11:03:00;;;;;;;;;2.00;1.25;;;;;18.39;82.78;101278.28;4974506;28;45414;-65
2023/05/07 11:05:31;;;;;;;;;7.50;3.75;;;;;18.37;83.27;101274.78;4971917;28;46021;-65
2023/05/07 11:07:58;;;;;;;;;2.00;2.00;;;;;18.33;82.90;101268.69;4957289;28;46592;-65
2023/05/07 11:10:43;;;;;;;;;2.75;2.75;;;;;18.31;82.97;101267.91;4957374;28;45451;-65
2023/05/07 11:13:08;;;;;;;;;2.50;2.50;;;;;18.37;82.51;101276.63;4975702;28;45303;-65
2023/05/07 11:15:39;;;;;;;;;2.50;2.50;;;;;18.27;83.06;101263.63;4973398;28;45662;-65
2023/05/07 11:18:05;;;;;;;;;2.75;2.75;;;;;18.30;82.84;101265.31;4976336;28;45500;-65
2023/05/07 11:20:53;;;;;;;;;0.00;0.00;;;;;18.41;82.93;101284.50;4957487;28;45387;-65
2023/05/07 11:23:33;;;;;;;;;2.50;2.50;;;;;18.42;84.00;101291.63;4957162;28;45393;-65
2023/05/07 11:26:06;;;;;;;;;4.25;3.25;;;;;18.24;83.88;101262.94;4972121;28;45324;-66
2023/05/07 11:28:39;;;;;;;;;4.00;3.50;;;;;18.41;83.84;101299.81;4957196;28;45324;-65
2023/05/07 11:31:05;;;;;;;;;1.00;1.00;;;;;18.35;84.02;101290.22;4966882;28;45527;-65
2023/05/07 11:33:31;;;;;;;;;5.00;3.75;;;;;18.42;83.90;101307.84;4957591;28;45414;-65
2023/05/07 11:35:57;;;;;;;;;3.75;3.75;;;;;18.36;83.99;101292.00;4971955;28;45495;-65
2023/05/07 11:38:23;;;;;;;;;3.75;3.75;;;;;18.29;83.82;101279.75;4955793;28;47902;-65
2023/05/07 11:40:51;;;;;;;;;4.50;4.25;;;;;18.22;83.67;101264.84;4971706;28;45817;-65
2023/05/07 11:43:17;;;;;;;;;5.75;5.75;;;;;18.40;84.45;101300.78;4957123;28;45493;-65
2023/05/07 11:45:44;;;;;;;;;4.00;4.00;;;;;18.37;84.72;101291.00;4975390;28;45405;-65
2023/05/07 11:48:09;;;;;;;;;5.00;5.00;;;;;18.33;84.59;101298.44;5008704;28;47594;-65
2023/05/07 11:50:35;;;;;;;;;3.50;3.50;;;;;18.34;84.76;101296.59;5010868;27;45322;-65
2023/05/07 11:53:06;;;;;;;;;3.25;3.25;;;;;18.33;84.71;101294.88;4957058;28;45785;-65
2023/05/07 11:55:32;;;;;;;;;5.75;5.50;;;;;18.23;85.12;101283.69;4956889;28;45423;-65
2023/05/07 11:57:57;;;;;;;;;2.75;2.75;;;;;18.26;85.06;101286.22;4956579;28;45445;-65
2023/05/07 12:00:22;;;;;;;;;8.50;5.00;;;;;18.26;84.91;101285.34;4956449;28;45461;-65
2023/05/07 12:02:48;;;;;;;;;6.50;6.50;;;;;18.30;84.86;101301.28;4969154;28;45428;-65
2023/05/07 12:05:13;;;;;;;;;4.75;4.75;;;;;18.33;84.63;101300.28;4959623;28;45462;-65
2023/05/07 12:07:39;;;;;;;;;7.25;7.25;;;;;18.28;86.19;101287.00;4966742;28;45917;-65
2023/05/07 12:10:07;;;;;;;;;6.25;6.25;;;;;18.37;85.97;101300.97;4992599;28;45615;-65
2023/05/07 12:12:39;;;;;;;;;6.75;6.75;;;;;18.41;86.43;101305.22;5029965;28;45468;-65
2023/05/07 12:15:05;;;;;;;;;7.00;7.00;;;;;18.41;86.36;101295.31;4977017;28;45389;-66
2023/05/07 12:17:30;;;;;;;;;7.25;7.25;;;;;18.48;85.93;101294.00;4987683;27;45401;-66
2023/05/07 12:19:56;;;;;;;;;6.50;6.50;;;;;18.49;85.95;101295.75;4979278;28;45417;-65
2023/05/07 12:22:22;;;;;;;;;8.50;8.50;;;;;18.54;86.81;101300.88;4979228;28;45377;-65
2023/05/07 12:24:49;;;;;;;;;11.75;7.75;;;;;18.47;86.44;101281.41;4979191;28;45579;-66
2023/05/07 12:27:16;;;;;;;;;11.25;8.50;;;;;18.44;86.46;101284.31;4977600;28;47281;-65
2023/05/07 12:29:46;;;;;;;;;7.50;7.50;;;;;18.50;86.86;101283.94;4979205;28;45334;-66
2023/05/07 12:32:16;;;;;;;;;7.00;7.00;;;;;18.52;86.12;101291.97;4982603;28;45312;-66
2023/05/07 12:34:41;;;;;;;;;8.50;6.00;;;;;18.65;85.49;101311.09;4976392;27;45566;-65
2023/05/07 12:37:07;;;;;;;;;7.25;5.00;;;;;18.54;84.71;101303.56;4963624;28;46155;-65
2023/05/07 12:39:32;;;;;;;;;6.25;6.25;;;;;18.53;84.65;101304.53;4977055;28;45452;-66
2023/05/07 12:41:59;;;;;;;;;3.75;3.75;;;;;18.54;84.50;101313.53;4977851;28;45429;-66
2023/05/07 12:44:32;;;;;;;;;5.00;5.00;;;;;18.55;83.38;101320.69;4974701;28;45326;-65
2023/05/07 12:47:01;;;;;;;;;8.00;6.25;;;;;18.62;84.48;101332.88;4968552;28;46096;-65
2023/05/07 12:49:26;;;;;;;;;6.00;4.75;;;;;18.56;84.55;101331.41;4961547;28;45567;-66
2023/05/07 12:51:53;;;;;;;;;2.75;2.50;;;;;18.57;84.67;101330.44;4958504;28;45590;-65
2023/05/07 12:54:32;;;;;;;;;4.00;4.00;;;;;18.48;84.89;101312.91;4974215;28;45343;-66
2023/05/07 12:57:06;;;;;;;;;5.75;5.75;;;;;18.58;84.31;101325.91;4959024;28;46688;-66
2023/05/07 12:59:41;;;;;;;;;6.25;5.00;;;;;18.57;85.25;101327.72;4959091;28;45348;-66
2023/05/07 13:02:07;;;;;;;;;5.00;4.25;;;;;18.39;84.92;101302.59;4963651;28;46918;-66
2023/05/07 13:04:33;;;;;;;;;5.00;4.00;;;;;18.52;86.25;101325.28;4973931;28;45617;-66
2023/05/07 13:06:59;;;;;;;;;6.75;5.75;;;;;18.57;85.71;101332.28;4958187;28;45709;-66
2023/05/07 13:09:25;;;;;;;;;7.00;6.50;;;;;18.64;86.04;101345.38;4957628;28;45335;-66
2023/05/07 13:11:50;;;;;;;;;7.00;7.00;;;;;18.66;86.16;101342.56;5031081;28;45255;-66
2023/05/07 13:14:15;;;;;;;;;6.00;6.00;;;;;18.62;85.80;101341.84;4973160;28;45379;-65
2023/05/07 13:16:41;;;;;;;;;6.25;6.25;;;;;18.67;85.83;101347.00;4981975;28;47014;-66
2023/05/07 13:19:06;;;;;;;;;6.00;6.00;;;;;18.69;85.82;101356.81;4969260;28;45349;-65
2023/05/07 13:21:32;;;;;;;;;5.00;5.00;;;;;18.65;86.32;101348.94;4961272;28;45331;-65
2023/05/07 13:23:58;;;;;;;;;8.25;6.75;;;;;18.66;85.74;101343.44;4985227;28;45276;-66
2023/05/07 13:26:24;;;;;;;;;7.75;7.50;;;;;18.70;85.89;101350.41;4984487;28;48340;-66
2023/05/07 13:28:49;;;;;;;;;7.00;6.25;;;;;18.73;85.51;101356.59;4970322;28;45476;-66
2023/05/07 13:31:15;;;;;;;;;7.50;6.00;;;;;18.72;85.72;101350.31;4974208;28;45701;-65
2023/05/07 13:33:40;;;;;;;;;5.00;4.25;;;;;18.67;85.89;101347.00;4970009;28;51294;-65
2023/05/07 13:36:06;;;;;;;;;6.00;6.00;;;;;18.56;86.14;101315.19;4958447;28;45459;-66
2023/05/07 13:38:31;;;;;;;;;5.50;5.50;;;;;18.79;86.00;101357.13;4958621;28;45392;-66
2023/05/07 13:40:56;;;;;;;;;5.00;4.00;;;;;18.72;85.75;101344.91;4958510;28;45403;-66
2023/05/07 13:43:22;;;;;;;;;7.00;7.00;;;;;18.75;85.49;101346.59;4960705;28;45366;-65
2023/05/07 13:45:47;;;;;;;;;7.00;6.00;;;;;18.70;86.11;101344.13;4979316;28;47935;-66
2023/05/07 13:48:12;;;;;;;;;6.50;6.50;;;;;18.66;86.42;101329.94;4959737;28;45458;-65